createdAt,value
2022-11-07T00:00:33.673Z,99560.72
2022-11-07T00:02:07.162Z,99560.44
2022-11-07T00:03:40.604Z,99552.34
2022-11-07T00:05:13.756Z,99551.56
2022-11-07T00:06:47.354Z,99557.00
2022-11-07T00:08:20.674Z,99550.88
2022-11-07T00:09:53.832Z,99558.72
2022-11-07T00:11:27.024Z,99557.78
2022-11-07T00:13:00.409Z,99565.75
2022-11-07T00:14:33.849Z,99558.59
2022-11-07T00:16:09.035Z,99569.22
2022-11-07T00:17:42.255Z,99562.19
2022-11-07T00:19:17.270Z,99571.06
2022-11-07T00:20:50.615Z,99569.22
2022-11-07T00:22:25.240Z,99568.97
2022-11-07T00:23:57.456Z,99572.28
2022-11-07T00:25:30.624Z,99574.94
2022-11-07T00:27:04.100Z,99571.34
2022-11-07T00:28:38.346Z,99580.03
2022-11-07T00:30:12.946Z,99575.56
2022-11-07T00:31:46.432Z,99573.06
2022-11-07T00:33:19.734Z,99579.16
2022-11-07T00:34:52.963Z,99574.81
2022-11-07T00:36:27.841Z,99581.91
2022-11-07T00:38:01.451Z,99578.59
2022-11-07T00:39:34.583Z,99577.84
2022-11-07T00:41:08.178Z,99580.56
2022-11-07T00:42:41.321Z,99574.47
2022-11-07T00:44:13.581Z,99583.28
2022-11-07T00:45:46.830Z,99573.47
2022-11-07T00:47:19.991Z,99576.00
2022-11-07T00:48:53.464Z,99567.22
2022-11-07T00:50:26.620Z,99572.28
2022-11-07T00:51:59.967Z,99572.41
2022-11-07T00:53:33.597Z,99576.00
2022-11-07T00:55:07.464Z,99574.28
2022-11-07T00:56:40.765Z,99570.00
2022-11-07T00:58:14.353Z,99573.47
2022-11-07T00:59:47.847Z,99569.09
2022-11-07T01:01:22.110Z,99570.81
2022-11-07T01:03:10.151Z,99567.34
2022-11-07T01:05:00.913Z,99577.00
2022-11-07T01:06:36.353Z,99566.06
2022-11-07T01:08:09.539Z,99561.66
2022-11-07T01:09:44.494Z,99565.88
2022-11-07T01:11:17.677Z,99577.47
2022-11-07T01:12:50.813Z,99557.91
2022-11-07T01:14:25.135Z,99563.22
2022-11-07T01:15:57.569Z,99551.72
2022-11-07T01:17:30.824Z,99567.75
2022-11-07T01:19:03.689Z,99550.88
2022-11-07T01:20:37.583Z,99553.53
2022-11-07T01:22:10.982Z,99558.03
2022-11-07T01:23:43.191Z,99551.00
2022-11-07T01:25:17.832Z,99550.13
2022-11-07T01:26:51.962Z,99551.91
2022-11-07T01:28:25.290Z,99563.38
2022-11-07T01:29:58.461Z,99551.78
2022-11-07T01:31:32.305Z,99547.34
2022-11-07T01:33:05.646Z,99547.28
2022-11-07T01:34:39.040Z,99549.00
2022-11-07T01:36:13.617Z,99547.16
2022-11-07T01:37:46.783Z,99550.59
2022-11-07T01:39:19.878Z,99544.44
2022-11-07T01:41:12.052Z,99551.91
2022-11-07T01:42:45.244Z,99538.00
2022-11-07T01:44:52.722Z,99545.81
2022-11-07T01:46:30.459Z,99548.34
2022-11-07T01:48:04.911Z,99545.69
2022-11-07T01:49:40.376Z,99533.28
2022-11-07T01:51:15.010Z,99534.94
2022-11-07T01:52:50.694Z,99533.19
2022-11-07T01:54:27.569Z,99535.78
2022-11-07T01:56:01.199Z,99535.34
2022-11-07T01:57:37.048Z,99540.66
2022-11-07T01:59:12.890Z,99526.72
2022-11-07T02:00:45.133Z,99526.59
2022-11-07T02:02:18.664Z,99544.25
2022-11-07T02:03:53.407Z,99537.09
2022-11-07T02:05:33.069Z,99535.19
2022-11-07T02:07:10.816Z,99534.44
2022-11-07T02:08:45.702Z,99533.34
2022-11-07T02:10:19.762Z,99534.25
2022-11-07T02:11:54.697Z,99533.47
2022-11-07T02:13:30.250Z,99537.84
2022-11-07T02:15:02.730Z,99540.50
2022-11-07T02:16:37.076Z,99540.38
2022-11-07T02:18:09.513Z,99542.97
2022-11-07T02:19:45.674Z,99538.50
2022-11-07T02:21:35.057Z,99538.38
2022-11-07T02:23:13.730Z,99543.56
2022-11-07T02:24:52.889Z,99540.72
2022-11-07T02:26:26.994Z,99531.72
2022-11-07T02:28:04.831Z,99541.56
2022-11-07T02:29:40.370Z,99530.91
2022-11-07T02:31:13.776Z,99526.47
2022-11-07T02:32:47.020Z,99524.19
2022-11-07T02:34:20.234Z,99545.91
2022-11-07T02:35:54.835Z,99543.16
2022-11-07T02:37:33.325Z,99539.28
2022-11-07T02:39:06.570Z,99539.00
2022-11-07T02:40:41.536Z,99542.47
2022-11-07T02:42:14.964Z,99546.03
2022-11-07T02:43:53.013Z,99538.06
2022-11-07T02:45:30.273Z,99538.88
2022-11-07T02:47:03.652Z,99534.44
2022-11-07T02:48:43.666Z,99532.69
2022-11-07T02:50:17.722Z,99535.41
2022-11-07T02:51:50.951Z,99537.00
2022-11-07T02:53:24.185Z,99544.06
2022-11-07T02:54:56.449Z,99539.50
2022-11-07T02:56:31.234Z,99550.97
2022-11-07T02:58:04.461Z,99535.28
2022-11-07T02:59:37.632Z,99537.00
2022-11-07T03:01:12.528Z,99537.00
2022-11-07T03:02:48.032Z,99545.91
2022-11-07T03:04:21.224Z,99548.56
2022-11-07T03:05:53.393Z,99540.47
2022-11-07T03:07:27.371Z,99542.03
2022-11-07T03:09:00.734Z,99542.69
2022-11-07T03:10:33.990Z,99539.03
2022-11-07T03:12:08.119Z,99540.69
2022-11-07T03:13:41.698Z,99536.16
2022-11-07T03:15:15.884Z,99537.97
2022-11-07T03:16:49.059Z,99538.94
2022-11-07T03:18:22.249Z,99539.94
2022-11-07T03:19:54.421Z,99540.03
2022-11-07T03:21:27.837Z,99542.16
2022-11-07T03:23:01.015Z,99536.16
2022-11-07T03:24:34.305Z,99540.88
2022-11-07T03:26:07.768Z,99548.06
2022-11-07T03:27:48.646Z,99548.31
2022-11-07T03:29:21.846Z,99555.91
2022-11-07T03:30:55.259Z,99555.13
2022-11-07T03:32:28.532Z,99552.59
2022-11-07T03:34:02.178Z,99566.97
2022-11-07T03:35:35.527Z,99559.75
2022-11-07T03:37:08.649Z,99567.84
2022-11-07T03:38:42.179Z,99564.38
2022-11-07T03:40:14.861Z,99567.91
2022-11-07T03:41:47.977Z,99558.19
2022-11-07T03:43:21.547Z,99560.50
2022-11-07T03:44:54.783Z,99557.78
2022-11-07T03:46:28.215Z,99559.44
2022-11-07T03:48:01.385Z,99556.59
2022-11-07T03:49:34.510Z,99555.66
2022-11-07T03:51:08.668Z,99558.09
2022-11-07T03:52:40.937Z,99555.38
2022-11-07T03:54:14.200Z,99549.25
2022-11-07T03:55:48.152Z,99554.63
2022-11-07T03:57:20.465Z,99553.94
2022-11-07T03:58:55.159Z,99563.56
2022-11-07T04:00:28.433Z,99560.84
2022-11-07T04:02:00.755Z,99559.13
2022-11-07T04:03:34.564Z,99568.81
2022-11-07T04:05:07.361Z,99557.22
2022-11-07T04:06:40.636Z,99574.06
2022-11-07T04:08:13.851Z,99573.06
2022-11-07T04:09:47.086Z,99571.34
2022-11-07T04:11:34.141Z,99578.38
2022-11-07T04:13:36.421Z,99577.72
2022-11-07T04:15:29.931Z,99577.03
2022-11-07T04:17:21.901Z,99581.50
2022-11-07T04:18:55.068Z,99582.34
2022-11-07T04:20:28.637Z,99584.16
2022-11-07T04:22:01.850Z,99581.41
2022-11-07T04:23:35.279Z,99585.00
2022-11-07T04:25:08.642Z,99585.19
2022-11-07T04:26:59.237Z,99579.03
2022-11-07T04:28:32.417Z,99576.50
2022-11-07T04:30:20.174Z,99579.03
2022-11-07T04:31:54.856Z,99586.06
2022-11-07T04:33:28.136Z,99573.59
2022-11-07T04:35:01.447Z,99582.34
2022-11-07T04:36:36.302Z,99585.75
2022-11-07T04:38:09.543Z,99576.78
2022-11-07T04:39:42.678Z,99582.94
2022-11-07T04:41:24.729Z,99581.97
2022-11-07T04:42:58.482Z,99580.09
2022-11-07T04:44:31.604Z,99586.34
2022-11-07T04:46:04.881Z,99580.03
2022-11-07T04:47:40.806Z,99590.44
2022-11-07T04:49:15.305Z,99592.16
2022-11-07T04:50:49.001Z,99597.50
2022-11-07T04:52:21.185Z,99595.47
2022-11-07T04:53:54.727Z,99590.25
2022-11-07T04:55:30.668Z,99592.03
2022-11-07T04:57:03.880Z,99604.25
2022-11-07T04:58:37.168Z,99592.75
2022-11-07T05:00:15.324Z,99596.88
2022-11-07T05:01:48.670Z,99594.06
2022-11-07T05:03:23.416Z,99597.44
2022-11-07T05:04:56.732Z,99591.22
2022-11-07T05:06:30.630Z,99600.72
2022-11-07T05:08:03.874Z,99601.72
2022-11-07T05:09:36.466Z,99609.03
2022-11-07T05:11:09.698Z,99593.63
2022-11-07T05:12:43.211Z,99596.34
2022-11-07T05:14:16.546Z,99607.88
2022-11-07T05:15:51.200Z,99601.59
2022-11-07T05:17:27.936Z,99607.88
2022-11-07T05:19:03.923Z,99612.16
2022-11-07T05:20:39.272Z,99614.03
2022-11-07T05:22:30.146Z,99610.59
2022-11-07T05:24:03.345Z,99624.72
2022-11-07T05:25:36.626Z,99615.03
2022-11-07T05:27:19.208Z,99627.25
2022-11-07T05:28:52.414Z,99623.66
2022-11-07T05:30:24.508Z,99621.66
2022-11-07T05:31:58.643Z,99625.28
2022-11-07T05:33:32.210Z,99627.00
2022-11-07T05:35:07.442Z,99633.31
2022-11-07T05:36:41.004Z,99635.16
2022-11-07T05:38:14.587Z,99632.56
2022-11-07T05:39:51.072Z,99630.13
2022-11-07T05:41:27.948Z,99628.38
2022-11-07T05:43:01.788Z,99634.56
2022-11-07T05:44:35.116Z,99641.47
2022-11-07T05:46:09.381Z,99636.16
2022-11-07T05:47:42.709Z,99637.88
2022-11-07T05:49:15.982Z,99639.75
2022-11-07T05:50:50.490Z,99649.59
2022-11-07T05:52:23.898Z,99647.06
2022-11-07T05:53:57.098Z,99656.78
2022-11-07T05:55:30.463Z,99656.16
2022-11-07T05:57:03.648Z,99661.41
2022-11-07T05:58:37.281Z,99663.16
2022-11-07T06:00:11.892Z,99667.25
2022-11-07T06:01:51.115Z,99667.94
2022-11-07T06:03:24.746Z,99672.84
2022-11-07T06:04:58.168Z,99677.91
2022-11-07T06:06:32.909Z,99676.03
2022-11-07T06:08:06.462Z,99683.88
2022-11-07T06:09:39.869Z,99677.03
2022-11-07T06:11:13.112Z,99681.34
2022-11-07T06:12:45.579Z,99678.69
2022-11-07T06:14:18.864Z,99680.19
2022-11-07T06:15:52.123Z,99679.09
2022-11-07T06:17:25.430Z,99678.84
2022-11-07T06:18:58.625Z,99682.06
2022-11-07T06:20:32.560Z,99690.66
2022-11-07T06:22:07.217Z,99686.88
2022-11-07T06:23:40.438Z,99684.91
2022-11-07T06:25:13.831Z,99691.81
2022-11-07T06:26:47.106Z,99689.97
2022-11-07T06:28:20.300Z,99697.72
2022-11-07T06:29:53.582Z,99700.31
2022-11-07T06:31:26.708Z,99701.13
2022-11-07T06:33:03.105Z,99711.69
2022-11-07T06:34:36.495Z,99706.31
2022-11-07T06:36:12.050Z,99708.66
2022-11-07T06:37:45.562Z,99706.81
2022-11-07T06:39:18.779Z,99701.47
2022-11-07T06:40:51.954Z,99706.50
2022-11-07T06:42:27.098Z,99709.97
2022-11-07T06:44:00.327Z,99715.16
2022-11-07T06:45:33.492Z,99715.78
2022-11-07T06:47:08.162Z,99710.25
2022-11-07T06:48:41.690Z,99712.72
2022-11-07T06:50:14.909Z,99713.41
2022-11-07T06:51:48.695Z,99708.03
2022-11-07T06:53:23.260Z,99713.50
2022-11-07T06:54:56.575Z,99705.34
2022-11-07T06:56:29.777Z,99709.59
2022-11-07T06:58:03.344Z,99709.47
2022-11-07T06:59:36.591Z,99713.97
2022-11-07T07:01:13.521Z,99708.50
2022-11-07T07:02:58.589Z,99703.03
2022-11-07T07:04:32.324Z,99711.81
2022-11-07T07:06:07.572Z,99697.72
2022-11-07T07:07:40.828Z,99712.25
2022-11-07T07:09:15.418Z,99714.69
2022-11-07T07:10:48.694Z,99716.16
2022-11-07T07:12:21.820Z,99717.56
2022-11-07T07:14:01.839Z,99722.09
2022-11-07T07:15:49.972Z,99726.66
2022-11-07T07:17:24.164Z,99713.84
2022-11-07T07:18:57.459Z,99723.44
2022-11-07T07:20:31.351Z,99717.84
2022-11-07T07:22:04.511Z,99728.22
2022-11-07T07:23:39.082Z,99719.00
2022-11-07T07:25:14.070Z,99717.84
2022-11-07T07:26:47.329Z,99729.84
2022-11-07T07:28:20.632Z,99724.13
2022-11-07T07:29:53.778Z,99728.28
2022-11-07T07:31:30.842Z,99723.75
2022-11-07T07:33:04.077Z,99723.81
2022-11-07T07:34:37.276Z,99728.84
2022-11-07T07:36:12.496Z,99727.69
2022-11-07T07:37:51.969Z,99725.16
2022-11-07T07:39:27.198Z,99719.97
2022-11-07T07:41:02.325Z,99725.16
2022-11-07T07:42:35.442Z,99713.25
2022-11-07T07:44:08.873Z,99717.84
2022-11-07T07:45:42.225Z,99724.34
2022-11-07T07:47:15.405Z,99724.50
2022-11-07T07:48:48.735Z,99727.50
2022-11-07T07:50:21.959Z,99724.16
2022-11-07T07:51:55.167Z,99721.97
2022-11-07T07:53:28.399Z,99715.94
2022-11-07T07:55:01.928Z,99715.44
2022-11-07T07:56:36.504Z,99719.41
2022-11-07T07:58:09.748Z,99720.38
2022-11-07T07:59:43.019Z,99709.41
2022-11-07T08:01:16.338Z,99718.56
2022-11-07T08:02:49.744Z,99718.19
2022-11-07T08:04:23.015Z,99710.00
2022-11-07T08:05:57.014Z,99705.06
2022-11-07T08:07:30.335Z,99705.88
2022-11-07T08:09:03.650Z,99703.03
2022-11-07T08:10:44.443Z,99712.38
2022-11-07T08:12:19.003Z,99718.19
2022-11-07T08:13:53.653Z,99711.41
2022-11-07T08:15:28.654Z,99718.97
2022-11-07T08:17:02.159Z,99712.47
2022-11-07T08:18:36.675Z,99706.81
2022-11-07T08:20:11.919Z,99711.00
2022-11-07T08:21:46.319Z,99706.03
2022-11-07T08:23:20.412Z,99708.41
2022-11-07T08:24:53.730Z,99709.44
2022-11-07T08:26:27.299Z,99713.66
2022-11-07T08:28:02.057Z,99713.78
2022-11-07T08:29:35.248Z,99710.66
2022-11-07T08:31:10.488Z,99710.66
2022-11-07T08:32:43.696Z,99713.88
2022-11-07T08:34:16.907Z,99717.72
2022-11-07T08:35:50.101Z,99705.84
2022-11-07T08:37:23.747Z,99713.22
2022-11-07T08:38:57.068Z,99713.25
2022-11-07T08:40:30.567Z,99708.75
2022-11-07T08:42:03.788Z,99715.63
2022-11-07T08:43:38.409Z,99716.69
2022-11-07T08:45:12.113Z,99709.63
2022-11-07T08:46:45.245Z,99712.50
2022-11-07T08:48:18.883Z,99707.47
2022-11-07T08:49:52.038Z,99713.78
2022-11-07T08:51:25.340Z,99711.78
2022-11-07T08:53:02.745Z,99705.66
2022-11-07T08:54:36.474Z,99716.00
2022-11-07T08:56:10.978Z,99711.50
2022-11-07T08:57:44.204Z,99719.81
2022-11-07T08:59:19.443Z,99716.91
2022-11-07T09:00:52.669Z,99721.34
2022-11-07T09:03:08.486Z,99720.38
2022-11-07T09:04:19.514Z,99725.56
2022-11-07T09:05:52.722Z,99726.69
2022-11-07T09:07:25.895Z,99721.09
2022-11-07T09:08:59.161Z,99723.22
2022-11-07T09:10:32.548Z,99724.38
2022-11-07T09:12:06.070Z,99714.06
2022-11-07T09:13:39.503Z,99716.38
2022-11-07T09:15:14.476Z,99714.25
2022-11-07T09:16:47.932Z,99715.59
2022-11-07T09:18:21.260Z,99717.72
2022-11-07T09:19:54.391Z,99716.56
2022-11-07T09:21:27.576Z,99713.63
2022-11-07T09:23:01.492Z,99708.91
2022-11-07T09:24:34.669Z,99708.16
2022-11-07T09:26:08.091Z,99706.78
2022-11-07T09:27:41.265Z,99699.78
2022-11-07T09:29:14.728Z,99706.09
2022-11-07T09:30:54.771Z,99704.84
2022-11-07T09:32:43.850Z,99697.94
2022-11-07T09:34:18.284Z,99711.78
2022-11-07T09:35:51.958Z,99706.66
2022-11-07T09:37:25.161Z,99702.72
2022-11-07T09:38:59.264Z,99707.16
2022-11-07T09:40:43.056Z,99699.75
2022-11-07T09:42:28.485Z,99702.25
2022-11-07T09:44:19.056Z,99696.88
2022-11-07T09:46:02.530Z,99695.56
2022-11-07T09:47:38.841Z,99692.94
2022-11-07T09:49:18.047Z,99694.69
2022-11-07T09:50:52.853Z,99697.72
2022-11-07T09:52:37.751Z,99696.88
2022-11-07T09:54:15.975Z,99694.34
2022-11-07T09:55:53.849Z,99674.69
2022-11-07T09:57:29.916Z,99683.28
2022-11-07T09:59:13.774Z,99683.00
2022-11-07T10:00:47.877Z,99683.66
2022-11-07T10:02:25.877Z,99685.59
2022-11-07T10:04:27.698Z,99677.00
2022-11-07T10:06:02.883Z,99683.22
2022-11-07T10:07:47.350Z,99686.19
2022-11-07T10:09:30.713Z,99677.53
2022-11-07T10:11:09.575Z,99688.81
2022-11-07T10:13:00.250Z,99688.66
2022-11-07T10:14:45.837Z,99683.78
2022-11-07T10:16:29.928Z,99668.50
2022-11-07T10:18:15.724Z,99669.06
2022-11-07T10:20:09.580Z,99662.25
2022-11-07T10:21:52.990Z,99666.41
2022-11-07T10:23:40.909Z,99662.22
2022-11-07T10:25:23.745Z,99644.50
2022-11-07T10:26:58.692Z,99665.69
2022-11-07T10:28:32.443Z,99660.22
2022-11-07T10:30:17.060Z,99661.41
2022-11-07T10:31:56.788Z,99663.09
2022-11-07T10:33:40.221Z,99652.91
2022-11-07T10:35:24.734Z,99658.66
2022-11-07T10:36:58.075Z,99654.28
2022-11-07T10:38:33.446Z,99652.75
2022-11-07T10:40:15.885Z,99650.78
2022-11-07T10:41:58.887Z,99647.34
2022-11-07T10:43:35.828Z,99650.09
2022-11-07T10:45:13.096Z,99644.84
2022-11-07T10:46:50.204Z,99644.94
2022-11-07T10:48:29.566Z,99638.06
2022-11-07T10:50:18.529Z,99635.94
2022-11-07T10:51:52.824Z,99635.69
2022-11-07T10:53:27.643Z,99631.59
2022-11-07T10:55:08.939Z,99634.59
2022-11-07T10:56:46.480Z,99632.41
2022-11-07T10:58:22.200Z,99629.72
2022-11-07T10:59:58.007Z,99621.75
2022-11-07T11:01:31.418Z,99623.19
2022-11-07T11:03:16.198Z,99621.91
2022-11-07T11:04:51.380Z,99618.94
2022-11-07T11:06:31.520Z,99621.81
2022-11-07T11:08:17.467Z,99611.19
2022-11-07T11:09:53.418Z,99619.22
2022-11-07T11:11:31.055Z,99617.03
2022-11-07T11:13:04.258Z,99607.59
2022-11-07T11:14:37.650Z,99615.97
2022-11-07T11:16:24.342Z,99612.00
2022-11-07T11:18:00.381Z,99610.59
2022-11-07T11:19:41.867Z,99610.41
2022-11-07T11:21:15.086Z,99601.59
2022-11-07T11:22:49.907Z,99606.66
2022-11-07T11:24:35.649Z,99605.78
2022-11-07T11:26:16.888Z,99603.09
2022-11-07T11:27:56.840Z,99602.34
2022-11-07T11:29:41.566Z,99594.31
2022-11-07T11:31:23.090Z,99600.41
2022-11-07T11:33:03.759Z,99592.16
2022-11-07T11:34:46.716Z,99593.66
2022-11-07T11:36:23.061Z,99598.06
2022-11-07T11:38:04.125Z,99602.88
2022-11-07T11:39:44.092Z,99585.91
2022-11-07T11:41:22.615Z,99591.19
2022-11-07T11:43:01.727Z,99594.72
2022-11-07T11:44:40.984Z,99589.72
2022-11-07T11:46:21.673Z,99590.44
2022-11-07T11:48:04.459Z,99592.22
2022-11-07T11:49:44.436Z,99588.75
2022-11-07T11:51:23.845Z,99582.34
2022-11-07T11:53:00.263Z,99580.53
2022-11-07T11:54:34.784Z,99581.50
2022-11-07T11:56:27.355Z,99582.81
2022-11-07T11:58:08.408Z,99580.91
2022-11-07T12:00:03.884Z,99575.44
2022-11-07T12:01:49.182Z,99577.81
2022-11-07T12:03:47.647Z,99580.25
2022-11-07T12:05:30.431Z,99581.81
2022-11-07T12:07:12.204Z,99578.69
2022-11-07T12:09:15.436Z,99570.44
2022-11-07T12:10:59.911Z,99572.59
2022-11-07T12:12:44.154Z,99561.53
2022-11-07T12:14:37.096Z,99563.28
2022-11-07T12:16:22.272Z,99556.72
2022-11-07T12:18:04.018Z,99563.94
2022-11-07T12:19:45.502Z,99554.69
2022-11-07T12:21:33.039Z,99560.78
2022-11-07T12:23:20.500Z,99560.78
2022-11-07T12:24:59.563Z,99563.06
2022-11-07T12:26:38.507Z,99562.84
2022-11-07T12:28:28.745Z,99556.63
2022-11-07T12:30:12.112Z,99558.47
2022-11-07T12:31:58.918Z,99553.94
2022-11-07T12:33:38.386Z,99556.09
2022-11-07T12:35:32.294Z,99559.53
2022-11-07T12:37:25.590Z,99556.97
2022-11-07T12:39:23.827Z,99545.78
2022-11-07T12:41:04.872Z,99555.25
2022-11-07T12:42:53.750Z,99557.94
2022-11-07T12:44:49.344Z,99552.03
2022-11-07T12:46:31.811Z,99555.22
2022-11-07T12:48:20.520Z,99550.38
2022-11-07T12:50:09.894Z,99553.25
2022-11-07T12:51:55.779Z,99551.13
2022-11-07T12:53:39.616Z,99541.28
2022-11-07T12:55:23.105Z,99543.19
2022-11-07T12:56:59.029Z,99551.25
2022-11-07T12:58:35.775Z,99554.56
2022-11-07T13:00:20.526Z,99553.50
2022-11-07T13:02:03.523Z,99545.34
2022-11-07T13:04:05.046Z,99543.19
2022-11-07T13:05:50.188Z,99542.78
2022-11-07T13:07:30.327Z,99541.69
2022-11-07T13:09:14.313Z,99550.63
2022-11-07T13:10:56.100Z,99537.81
2022-11-07T13:12:35.877Z,99542.22
2022-11-07T13:14:23.999Z,99532.66
2022-11-07T13:16:15.533Z,99532.44
2022-11-07T13:17:51.222Z,99536.97
2022-11-07T13:19:32.952Z,99528.38
2022-11-07T13:21:07.887Z,99530.53
2022-11-07T13:22:42.237Z,99532.25
2022-11-07T13:24:22.543Z,99530.75
2022-11-07T13:26:00.107Z,99523.56
2022-11-07T13:27:36.858Z,99533.53
2022-11-07T13:29:24.792Z,99528.41
2022-11-07T13:31:03.713Z,99526.22
2022-11-07T13:32:40.610Z,99528.28
2022-11-07T13:34:26.554Z,99513.56
2022-11-07T13:36:11.790Z,99517.94
2022-11-07T13:37:48.121Z,99513.75
2022-11-07T13:39:24.891Z,99514.94
2022-11-07T13:41:04.164Z,99518.69
2022-11-07T13:42:40.861Z,99521.25
2022-11-07T13:44:23.072Z,99516.13
2022-11-07T13:45:58.367Z,99528.75
2022-11-07T13:47:40.311Z,99528.13
2022-11-07T13:49:21.648Z,99525.75
2022-11-07T13:51:03.168Z,99528.78
2022-11-07T13:52:41.672Z,99534.16
2022-11-07T13:54:20.805Z,99526.56
2022-11-07T13:55:59.829Z,99535.75
2022-11-07T13:57:38.952Z,99537.88
2022-11-07T13:59:21.445Z,99531.44
2022-11-07T14:00:54.713Z,99530.59
2022-11-07T14:02:29.962Z,99535.19
2022-11-07T14:04:13.953Z,99535.53
2022-11-07T14:05:49.336Z,99538.06
2022-11-07T14:07:26.414Z,99539.25
2022-11-07T14:09:00.054Z,99540.00
2022-11-07T14:10:39.660Z,99533.97
2022-11-07T14:12:19.852Z,99544.69
2022-11-07T14:13:55.552Z,99538.50
2022-11-07T14:15:31.741Z,99532.38
2022-11-07T14:17:05.272Z,99542.34
2022-11-07T14:18:46.917Z,99545.31
2022-11-07T14:20:20.915Z,99550.03
2022-11-07T14:21:55.488Z,99544.88
2022-11-07T14:23:32.433Z,99538.56
2022-11-07T14:25:20.140Z,99548.16
2022-11-07T14:27:02.661Z,99554.13
2022-11-07T14:28:37.506Z,99544.00
2022-11-07T14:30:18.195Z,99544.56
2022-11-07T14:31:52.834Z,99539.59
2022-11-07T14:33:26.043Z,99532.41
2022-11-07T14:35:01.328Z,99540.34
2022-11-07T14:36:35.783Z,99544.38
2022-11-07T14:38:13.562Z,99538.47
2022-11-07T14:39:49.191Z,99546.94
2022-11-07T14:41:24.047Z,99545.50
2022-11-07T14:42:57.299Z,99545.91
2022-11-07T14:46:29.967Z,99551.81
2022-11-07T14:48:04.688Z,99539.97
2022-11-07T14:49:40.688Z,99543.09
2022-11-07T14:51:17.605Z,99553.47
2022-11-07T14:53:00.515Z,99546.16
2022-11-07T14:54:38.565Z,99552.03
2022-11-07T14:56:18.710Z,99555.28
2022-11-07T14:57:52.587Z,99548.22
2022-11-07T14:59:30.389Z,99553.81
2022-11-07T15:01:13.907Z,99532.38
2022-11-07T15:02:50.488Z,99558.59
2022-11-07T15:04:32.680Z,99560.38
2022-11-07T15:06:06.146Z,99558.84
2022-11-07T15:07:51.219Z,99562.66
2022-11-07T15:09:33.709Z,99562.56
2022-11-07T15:11:09.118Z,99559.09
2022-11-07T15:12:51.338Z,99562.91
2022-11-07T15:14:27.606Z,99562.31
2022-11-07T15:16:02.488Z,99564.81
2022-11-07T15:17:44.916Z,99571.19
2022-11-07T15:19:21.101Z,99567.06
2022-11-07T15:21:00.707Z,99570.88
2022-11-07T15:22:40.402Z,99570.25
2022-11-07T15:24:32.009Z,99573.28
2022-11-07T15:26:12.975Z,99576.28
2022-11-07T15:27:46.682Z,99566.84
2022-11-07T15:29:22.951Z,99567.88
2022-11-07T15:30:58.985Z,99575.09
2022-11-07T15:32:35.626Z,99567.59
2022-11-07T15:34:13.219Z,99586.03
2022-11-07T15:35:48.551Z,99585.56
2022-11-07T15:37:25.824Z,99577.94
2022-11-07T15:39:00.845Z,99595.03
2022-11-07T15:40:35.035Z,99587.38
2022-11-07T15:42:08.367Z,99587.69
2022-11-07T15:43:41.722Z,99590.69
2022-11-07T15:45:14.968Z,99590.53
2022-11-07T15:46:48.471Z,99589.91
2022-11-07T15:48:24.365Z,99593.59
2022-11-07T15:49:57.563Z,99601.81
2022-11-07T15:51:30.040Z,99592.28
2022-11-07T15:53:04.765Z,99595.28
2022-11-07T15:54:38.131Z,99606.09
2022-11-07T15:56:15.555Z,99600.91
2022-11-07T15:57:51.571Z,99606.75
2022-11-07T15:59:24.900Z,99605.31
2022-11-07T16:00:59.167Z,99616.97
2022-11-07T16:02:34.635Z,99604.94
2022-11-07T16:04:08.268Z,99613.91
2022-11-07T16:05:42.543Z,99612.19
2022-11-07T16:07:18.960Z,99611.91
2022-11-07T16:08:53.972Z,99618.06
2022-11-07T16:10:28.260Z,99620.00
2022-11-07T16:12:01.578Z,99613.97
2022-11-07T16:13:34.808Z,99613.50
2022-11-07T16:15:10.399Z,99620.75
2022-11-07T16:16:45.572Z,99626.31
2022-11-07T16:18:21.425Z,99636.38
2022-11-07T16:19:58.797Z,99627.78
2022-11-07T16:21:34.707Z,99633.25
2022-11-07T16:23:08.060Z,99628.94
2022-11-07T16:24:42.727Z,99632.38
2022-11-07T16:26:18.119Z,99632.69
2022-11-07T16:27:53.636Z,99636.13
2022-11-07T16:29:27.349Z,99637.94
2022-11-07T16:31:01.472Z,99640.59
2022-11-07T16:32:35.039Z,99639.03
2022-11-07T16:34:08.347Z,99637.59
2022-11-07T16:35:42.215Z,99648.25
2022-11-07T16:37:16.914Z,99649.94
2022-11-07T16:38:50.639Z,99656.22
2022-11-07T16:40:25.431Z,99659.16
2022-11-07T16:41:59.648Z,99661.97
2022-11-07T16:43:35.229Z,99664.69
2022-11-07T16:45:09.996Z,99670.25
2022-11-07T16:46:43.784Z,99664.00
2022-11-07T16:48:20.764Z,99658.88
2022-11-07T16:49:56.106Z,99662.75
2022-11-07T16:51:29.640Z,99664.06
2022-11-07T16:53:03.021Z,99667.63
2022-11-07T16:54:36.123Z,99672.94
2022-11-07T16:56:22.099Z,99669.50
2022-11-07T16:57:55.543Z,99671.56
2022-11-07T16:59:28.821Z,99660.28
2022-11-07T17:01:04.928Z,99664.72
2022-11-07T17:02:38.258Z,99666.59
2022-11-07T17:04:12.472Z,99661.38
2022-11-07T17:05:46.577Z,99672.22
2022-11-07T17:07:21.799Z,99673.22
2022-11-07T17:09:04.996Z,99672.28
2022-11-07T17:10:42.251Z,99676.03
2022-11-07T17:12:19.493Z,99674.56
2022-11-07T17:13:53.005Z,99669.53
2022-11-07T17:15:27.031Z,99671.50
2022-11-07T17:17:03.452Z,99673.50
2022-11-07T17:18:36.575Z,99674.56
2022-11-07T17:20:49.100Z,99672.16
2022-11-07T17:22:16.486Z,99669.63
2022-11-07T17:23:49.884Z,99661.81
2022-11-07T17:25:23.068Z,99675.97
2022-11-07T17:26:56.417Z,99670.88
2022-11-07T17:28:31.269Z,99667.38
2022-11-07T17:30:08.509Z,99669.41
2022-11-07T17:31:43.043Z,99659.13
2022-11-07T17:33:16.471Z,99670.63
2022-11-07T17:35:10.700Z,99671.63
2022-11-07T17:36:46.490Z,99670.09
2022-11-07T17:38:20.271Z,99676.47
2022-11-07T17:39:54.016Z,99677.72
2022-11-07T17:41:29.888Z,99674.13
2022-11-07T17:43:03.179Z,99664.44
2022-11-07T17:44:37.721Z,99668.81
2022-11-07T17:46:16.229Z,99672.41
2022-11-07T17:47:49.961Z,99664.66
2022-11-07T17:49:23.267Z,99674.50
2022-11-07T17:50:56.456Z,99676.47
2022-11-07T17:52:30.666Z,99681.00
2022-11-07T17:54:04.584Z,99681.16
2022-11-07T17:55:37.895Z,99676.91
2022-11-07T17:57:11.672Z,99678.69
2022-11-07T17:58:45.867Z,99665.69
2022-11-07T18:00:22.383Z,99671.09
2022-11-07T18:01:55.641Z,99665.22
2022-11-07T18:03:28.945Z,99672.34
2022-11-07T18:05:02.450Z,99661.19
2022-11-07T18:06:37.006Z,99673.78
2022-11-07T18:08:19.916Z,99673.06
2022-11-07T18:10:03.657Z,99664.59
2022-11-07T18:11:37.085Z,99665.03
2022-11-07T18:13:10.226Z,99658.44
2022-11-07T18:14:43.476Z,99670.91
2022-11-07T18:16:20.347Z,99667.50
2022-11-07T18:17:53.526Z,99678.28
2022-11-07T18:19:29.513Z,99667.78
2022-11-07T18:21:02.954Z,99680.13
2022-11-07T18:22:37.306Z,99666.28
2022-11-07T18:24:10.864Z,99682.19
2022-11-07T18:25:44.586Z,99667.38
2022-11-07T18:27:17.715Z,99683.06
2022-11-07T18:28:51.077Z,99669.97
2022-11-07T18:30:24.227Z,99671.81
2022-11-07T18:31:58.947Z,99675.59
2022-11-07T18:33:32.383Z,99675.84
2022-11-07T18:35:06.470Z,99674.41
2022-11-07T18:36:41.269Z,99682.38
2022-11-07T18:38:14.774Z,99682.56
2022-11-07T18:39:48.295Z,99684.44
2022-11-07T18:41:23.511Z,99691.44
2022-11-07T18:42:56.802Z,99680.84
2022-11-07T18:44:30.117Z,99686.97
2022-11-07T18:46:04.203Z,99683.41
2022-11-07T18:47:39.305Z,99686.78
2022-11-07T18:49:14.048Z,99692.91
2022-11-07T18:50:48.129Z,99678.22
2022-11-07T18:52:21.321Z,99680.44
2022-11-07T18:53:55.453Z,99678.22
2022-11-07T18:55:28.656Z,99680.44
2022-11-07T18:57:01.814Z,99660.75